Avalon, Mississippi
Current Conditions -  °F | °C
As of 12:53 PM on Friday 28 Nov 2014 (Local Time) from KGWO Reporting Station
Clear Clear  
Wind Chill: 57°   Ceiling: Unl
Heat Index: 57°   Visibility: 10mi
Dew Point: 23°   Wind: 12mph
Humidity: 27%   Direction: 190°S
Pressure: 30.3"   Gusts: NA
Location:  33.65°N, 90.09°W
Report Text: KGWO 281853Z AUTO 19010KT 10SM CLR 14/M05 A3030 RMK AO2 SLP261 T01391050 TSNO
Loading
Personal Weather Stations






























Interactive Weather Map New forecast layout! Learn more

10-Day Weather Forecast

Advertisements
Track Severe Weather on mobile